CST,Max TemperatureF,Mean TemperatureF,Min TemperatureF,Max Dew PointF,MeanDew PointF,Min DewpointF,Max Humidity, Mean Humidity, Min Humidity, Max Sea Level PressureIn, Mean Sea Level PressureIn, Min Sea Level PressureIn, Max VisibilityMiles, Mean VisibilityMiles, Min VisibilityMiles, Max Wind SpeedMPH, Mean Wind SpeedMPH, Max Gust SpeedMPH,PrecipitationIn, CloudCover, Events, WindDirDegrees
2012-12-1,37,34,32,36,33,29,100,92,87,30.13,29.88,29.73,4,2,0,16,8,23,0.00,8,Fog,166
2012-12-2,37,35,33,36,34,32,100,92,86,30.02,29.93,29.81,9,3,1,9,1,,0.00,8,,162
2012-12-3,54,46,37,52,43,30,97,88,62,29.88,29.65,29.51,10,5,1,14,9,23,0.03,7,Rain,182
2012-12-4,39,26,12,28,13,7,80,60,47,30.43,30.15,29.82,10,10,10,9,6,21,0.00,0,,264
2012-12-5,34,20,7,17,12,3,84,66,50,30.48,30.28,29.96,10,10,10,14,4,26,0.00,3,,160
2012-12-6,43,34,26,36,27,18,86,70,50,29.98,29.85,29.74,10,10,10,14,8,26,0.00,6,Rain,210
2012-12-7,28,23,18,21,18,14,88,76,63,30.09,30.05,29.98,10,10,6,4,1,,0.00,4,,300
2012-12-8,33,26,18,21,18,15,89,76,56,30.14,30.10,30.06,10,10,5,5,1,,0.00,3,Snow,109
2012-12-9,28,27,26,25,24,18,93,86,66,30.14,29.99,29.84,10,2,1,12,7,17,0.24,8,Snow,82
2012-12-10,27,20,12,25,14,9,93,83,77,29.93,29.87,29.82,10,6,1,5,2,,0.01,8,Snow,268
2012-12-11,16,10,0,10,8,-5,88,81,73,30.09,29.87,29.74,10,6,2,7,4,,0.00,7,Snow,213
2012-12-12,39,18,-2,25,14,-7,84,72,57,30.11,30.00,29.87,10,10,8,13,4,22,0.00,4,,172
2012-12-13,37,30,23,26,22,20,88,71,52,30.17,30.04,29.91,10,10,8,6,3,,0.00,4,,190
2012-12-14,36,28,21,25,22,19,93,81,64,30.19,30.11,29.97,10,8,5,9,5,,0.00,4,,113
2012-12-15,37,35,33,36,33,28,100,88,76,29.91,29.63,29.51,10,5,2,13,6,23,0.08,8,Rain,120
2012-12-16,34,28,21,34,29,19,100,92,84,29.77,29.62,29.50,10,5,0,7,1,,0.02,8,Fog-Rain-Snow,290
2012-12-17,24,22,21,19,17,16,89,81,74,29.79,29.75,29.67,10,10,10,5,2,,0.00,8,,220
2012-12-18,30,20,10,20,16,7,92,82,66,29.86,29.75,29.67,10,10,10,5,1,,0.00,6,,88
2012-12-19,30,22,15,25,22,11,93,87,79,30.06,29.94,29.83,10,5,2,7,1,,0.00,8,Snow,194
2012-12-20,28,22,17,25,20,11,88,83,74,30.00,29.86,29.74,10,3,1,9,3,21,0.05,8,Snow,343
2012-12-21,23,12,1,10,5,-4,85,77,58,30.27,30.16,29.90,10,10,9,7,3,,0.00,2,,-1
2012-12-22,28,13,-2,14,5,-7,84,72,49,30.24,30.10,29.99,10,10,10,8,1,,0.00,1,,205
2012-12-23,21,18,12,9,7,6,80,69,55,30.17,30.12,30.07,10,10,5,6,3,,0.00,5,Snow,-1
2012-12-24,17,6,-4,9,3,-9,87,75,47,30.32,30.11,30.00,10,8,2,6,1,,0.00,5,Snow,350
2012-12-25,14,2,-9,2,-8,-15,84,75,59,30.54,30.41,30.22,10,10,10,5,0,,0.00,2,,270
2012-12-26,18,4,-9,6,-4,-15,84,77,60,30.46,30.39,30.33,10,10,10,0,0,,0.00,1,,-1
2012-12-27,23,10,-2,14,5,-8,88,74,63,30.34,30.26,30.16,10,10,10,7,1,,0.00,5,,77
2012-12-28,23,16,5,14,10,-1,88,76,63,30.20,30.10,29.99,10,9,5,7,1,,0.00,7,Snow,97
2012-12-29,21,12,3,16,9,-2,88,81,71,30.15,30.05,29.96,10,8,3,6,1,,0.00,8,Snow,239
2012-12-30,21,12,3,12,6,-1,84,74,58,30.22,30.09,29.92,10,9,6,9,3,,0.00,1,,187
2012-12-31,17,5,-8,12,0,-13,81,69,49,30.28,30.13,29.85,10,10,5,9,3,18,0.00,4,Snow,300